Terminal Aerodrome Forecast
Issued by NWS

Home | Current Version | Previous Version | Graphics & Text | Print | Product List | Glossary On
Versions: 1 2 3 4 5 6 7 8 9 10 11 12 13 14 15
000
FTUS43 KABR 201734
TAFPIR
TAF
KPIR 201734Z 2018/2118 29014KT P6SM BKN200
     FM210200 30009KT P6SM BKN110
     FM210700 33014G21KT P6SM SCT050
     FM211300 33020G29KT P6SM FEW250=

USA.gov is the U.S. government's official web portal to all federal, state and local government web resources and services.